Terminal Aerodrome Forecast
Issued by NWS

Home | Current Version | Previous Version | Text Only | Print | Product List | Glossary On
Versions: 1 2 3 4 5 6 7 8 9 10 11 12 13 14 15 16 17 18 19 20 21 22 23 24 25 26 27 28 29 30 31 32 33 34 35 36 37 38 39 40 41 42 43 44
000
FTUS45 KBOU 280533
TAFAPA
TAF
KAPA 280533Z 2806/2906 25009KT P6SM FEW120
     FM280730 36011KT P6SM SKC
     FM280900 02009KT P6SM SKC
     FM281000 06009KT P6SM SKC
     FM281300 10009KT P6SM SKC
     FM282000 12012G20KT P6SM FEW090 SCT150
     FM290300 16008KT P6SM FEW090 BKN120=

USA.gov is the U.S. government's official web portal to all federal, state and local government web resources and services.